createdAt,value
2023-02-08T00:00:42.302Z,5.40
2023-02-08T00:01:42.187Z,5.70
2023-02-08T00:02:42.142Z,6.10
2023-02-08T00:03:42.151Z,5.50
2023-02-08T00:04:42.148Z,5.40
2023-02-08T00:05:42.098Z,5.00
2023-02-08T00:06:42.073Z,7.00
2023-02-08T00:07:42.074Z,6.60
2023-02-08T00:08:42.031Z,5.70
2023-02-08T00:09:42.047Z,5.80
2023-02-08T00:10:42.405Z,4.80
2023-02-08T00:11:41.990Z,5.60
2023-02-08T00:12:41.962Z,4.90
2023-02-08T00:13:42.402Z,4.70
2023-02-08T00:14:42.980Z,5.80
2023-02-08T00:15:41.954Z,4.50
2023-02-08T00:16:41.898Z,6.10
2023-02-08T00:17:41.872Z,5.70
2023-02-08T00:18:41.884Z,5.00
2023-02-08T00:19:41.894Z,6.10
2023-02-08T00:20:42.091Z,6.30
2023-02-08T00:21:41.843Z,5.10
2023-02-08T00:22:41.791Z,6.00
2023-02-08T00:23:41.774Z,5.40
2023-02-08T00:24:41.788Z,5.70
2023-02-08T00:25:41.748Z,6.40
2023-02-08T00:26:41.732Z,6.00
2023-02-08T00:27:41.703Z,4.80
2023-02-08T00:28:41.735Z,4.70
2023-02-08T00:29:41.712Z,5.10
2023-02-08T00:30:42.056Z,5.40
2023-02-08T00:31:41.720Z,5.20
2023-02-08T00:32:41.615Z,5.50
2023-02-08T00:33:41.622Z,5.80
2023-02-08T00:34:41.630Z,5.10
2023-02-08T00:35:41.596Z,5.30
2023-02-08T00:36:41.564Z,6.40
2023-02-08T00:37:41.549Z,5.50
2023-02-08T00:38:41.522Z,7.40
2023-02-08T00:39:41.537Z,16.50
2023-02-08T00:40:41.865Z,20.10
2023-02-08T00:41:41.466Z,6.40
2023-02-08T00:42:41.438Z,9.00
2023-02-08T00:43:41.434Z,9.80
2023-02-08T00:44:41.441Z,10.30
2023-02-08T00:45:41.397Z,9.50
2023-02-08T00:46:41.425Z,11.40
2023-02-08T00:47:41.372Z,10.30
2023-02-08T00:48:41.343Z,9.80
2023-02-08T00:49:41.324Z,8.80
2023-02-08T00:50:41.652Z,9.30
2023-02-08T00:51:41.284Z,9.00
2023-02-08T00:52:41.265Z,11.60
2023-02-08T00:53:41.263Z,9.50
2023-02-08T00:54:41.231Z,10.10
2023-02-08T00:55:41.253Z,10.40
2023-02-08T00:56:41.209Z,9.40
2023-02-08T00:57:41.174Z,9.00
2023-02-08T00:58:41.176Z,10.00
2023-02-08T00:59:41.144Z,11.40
2023-02-08T01:00:41.638Z,11.70
2023-02-08T01:01:41.142Z,11.80
2023-02-08T01:02:41.101Z,11.60
2023-02-08T01:03:41.088Z,11.30
2023-02-08T01:04:41.076Z,12.30
2023-02-08T01:05:41.072Z,11.50
2023-02-08T01:06:41.028Z,13.30
2023-02-08T01:07:41.007Z,10.50
2023-02-08T01:08:40.984Z,12.50
2023-02-08T01:09:41.967Z,12.90
2023-02-08T01:10:41.262Z,10.80
2023-02-08T01:11:40.930Z,13.10
2023-02-08T01:12:40.923Z,11.00
2023-02-08T01:13:41.904Z,13.00
2023-02-08T01:14:40.899Z,12.70
2023-02-08T01:15:40.916Z,14.50
2023-02-08T01:16:40.888Z,13.30
2023-02-08T01:17:40.853Z,12.40
2023-02-08T01:18:40.811Z,11.80
2023-02-08T01:19:42.479Z,13.30
2023-02-08T01:20:42.084Z,13.00
2023-02-08T01:21:40.752Z,12.00
2023-02-08T01:22:40.733Z,11.80
2023-02-08T01:23:40.721Z,12.40
2023-02-08T01:24:40.708Z,12.60
2023-02-08T01:25:40.712Z,11.90
2023-02-08T01:26:40.693Z,11.30
2023-02-08T01:27:40.667Z,13.10
2023-02-08T01:28:40.636Z,13.90
2023-02-08T01:29:40.625Z,12.60
2023-02-08T01:30:40.902Z,12.30
2023-02-08T01:31:40.646Z,10.60
2023-02-08T01:32:40.574Z,11.60
2023-02-08T01:33:40.563Z,12.40
2023-02-08T01:34:41.674Z,11.30
2023-02-08T01:35:40.538Z,10.20
2023-02-08T01:36:40.494Z,12.30
2023-02-08T01:37:40.481Z,10.30
2023-02-08T01:38:40.474Z,10.70
2023-02-08T01:39:40.450Z,12.30
2023-02-08T01:40:40.797Z,12.90
2023-02-08T01:41:40.407Z,11.80
2023-02-08T01:42:40.396Z,12.50
2023-02-08T01:43:40.372Z,11.60
2023-02-08T01:44:40.372Z,12.90
2023-02-08T01:45:40.416Z,12.70
2023-02-08T01:46:40.337Z,12.20
2023-02-08T01:47:40.307Z,10.90
2023-02-08T01:48:40.294Z,12.00
2023-02-08T01:49:40.325Z,12.20
2023-02-08T01:50:40.633Z,10.00
2023-02-08T01:51:40.238Z,9.80
2023-02-08T01:52:40.251Z,13.10
2023-02-08T01:53:40.228Z,12.50
2023-02-08T01:54:40.194Z,12.50
2023-02-08T01:55:40.203Z,11.40
2023-02-08T01:56:40.163Z,10.80
2023-02-08T01:57:40.144Z,13.20
2023-02-08T01:58:40.130Z,11.30
2023-02-08T01:59:40.118Z,12.20
2023-02-08T02:00:40.451Z,12.00
2023-02-08T02:01:40.074Z,13.20
2023-02-08T02:02:40.051Z,11.70
2023-02-08T02:03:40.051Z,12.10
2023-02-08T02:04:40.147Z,12.50
2023-02-08T02:05:40.020Z,13.20
2023-02-08T02:08:16.551Z,10.80
2023-02-08T02:09:16.565Z,11.30
2023-02-08T02:10:16.547Z,10.20
2023-02-08T02:11:16.561Z,10.70
2023-02-08T02:12:16.520Z,11.50
2023-02-08T02:13:16.498Z,10.90
2023-02-08T02:14:16.472Z,11.60
2023-02-08T02:15:16.457Z,11.40
2023-02-08T02:16:16.514Z,10.80
2023-02-08T02:17:16.407Z,11.10
2023-02-08T02:18:16.400Z,9.50
2023-02-08T02:19:16.373Z,10.10
2023-02-08T02:20:16.374Z,11.60
2023-02-08T02:21:16.374Z,10.30
2023-02-08T02:22:16.341Z,10.00
2023-02-08T02:23:16.305Z,10.70
2023-02-08T02:24:16.292Z,11.00
2023-02-08T02:25:16.308Z,9.70
2023-02-08T02:26:16.282Z,10.50
2023-02-08T02:27:16.233Z,10.20
2023-02-08T02:28:16.290Z,10.80
2023-02-08T02:29:16.217Z,11.10
2023-02-08T02:30:16.189Z,9.90
2023-02-08T02:31:16.198Z,9.90
2023-02-08T02:32:16.147Z,10.60
2023-02-08T02:33:16.128Z,9.80
2023-02-08T02:34:16.107Z,9.30
2023-02-08T02:35:16.102Z,10.30
2023-02-08T02:36:16.105Z,9.90
2023-02-08T02:37:16.073Z,10.00
2023-02-08T02:38:16.048Z,9.70
2023-02-08T02:39:16.023Z,9.40
2023-02-08T02:40:16.009Z,10.60
2023-02-08T02:41:16.024Z,11.30
2023-02-08T02:42:15.969Z,10.50
2023-02-08T02:43:15.949Z,10.80
2023-02-08T02:44:15.931Z,9.80
2023-02-08T02:45:15.920Z,9.80
2023-02-08T02:46:15.943Z,9.90
2023-02-08T02:47:15.890Z,10.20
2023-02-08T02:48:15.865Z,10.60
2023-02-08T02:49:16.996Z,9.60
2023-02-08T02:50:17.006Z,10.60
2023-02-08T02:51:17.017Z,11.10
2023-02-08T02:52:16.962Z,11.60
2023-02-08T02:53:16.929Z,9.60
2023-02-08T02:54:16.926Z,11.50
2023-02-08T02:55:16.898Z,10.30
2023-02-08T02:56:16.905Z,8.70
2023-02-08T02:57:16.878Z,9.90
2023-02-08T02:58:16.845Z,10.50
2023-02-08T02:59:16.845Z,11.20
2023-02-08T03:00:16.846Z,10.00
2023-02-08T03:01:16.843Z,11.40
2023-02-08T03:02:16.781Z,10.30
2023-02-08T03:03:16.777Z,10.90
2023-02-08T03:04:16.828Z,10.80
2023-02-08T03:05:16.733Z,10.00
2023-02-08T03:06:16.748Z,9.80
2023-02-08T03:07:16.691Z,9.80
2023-02-08T03:08:16.698Z,11.10
2023-02-08T03:09:16.673Z,11.30
2023-02-08T03:10:16.639Z,12.50
2023-02-08T03:11:16.672Z,12.30
2023-02-08T03:12:16.598Z,11.80
2023-02-08T03:13:16.591Z,11.40
2023-02-08T03:14:16.572Z,11.10
2023-02-08T03:15:16.559Z,10.40
2023-02-08T03:16:16.570Z,12.20
2023-02-08T03:17:16.515Z,12.10
2023-02-08T03:18:16.493Z,13.30
2023-02-08T03:19:16.500Z,14.30
2023-02-08T03:20:16.474Z,13.30
2023-02-08T03:21:16.464Z,12.80
2023-02-08T03:22:16.425Z,12.50
2023-02-08T03:23:16.422Z,12.60
2023-02-08T03:24:16.429Z,12.70
2023-02-08T03:25:16.383Z,12.00
2023-02-08T03:26:16.402Z,13.00
2023-02-08T03:27:16.344Z,13.80
2023-02-08T03:28:16.346Z,14.30
2023-02-08T03:29:16.297Z,13.80
2023-02-08T03:30:17.297Z,13.50
2023-02-08T03:31:16.466Z,14.40
2023-02-08T03:32:16.263Z,11.70
2023-02-08T03:33:16.236Z,12.80
2023-02-08T03:34:17.218Z,13.10
2023-02-08T03:35:16.202Z,13.50
2023-02-08T03:36:16.257Z,13.70
2023-02-08T03:37:16.170Z,13.90
2023-02-08T03:38:16.169Z,12.30
2023-02-08T03:39:16.133Z,12.90
2023-02-08T03:40:16.123Z,13.80
2023-02-08T03:41:16.135Z,13.10
2023-02-08T03:42:16.083Z,13.50
2023-02-08T03:43:16.070Z,14.70
2023-02-08T03:44:16.055Z,14.90
2023-02-08T03:45:16.029Z,13.60
2023-02-08T03:46:16.091Z,13.90
2023-02-08T03:47:16.009Z,11.30
2023-02-08T03:48:15.976Z,13.80
2023-02-08T03:49:15.972Z,13.50
2023-02-08T03:50:15.942Z,14.50
2023-02-08T03:51:15.987Z,13.10
2023-02-08T03:52:15.943Z,12.50
2023-02-08T03:53:15.896Z,17.50
2023-02-08T03:54:15.870Z,11.20
2023-02-08T03:55:15.857Z,11.00
2023-02-08T03:56:15.850Z,12.60
2023-02-08T03:57:15.869Z,12.70
2023-02-08T03:58:15.798Z,13.40
2023-02-08T03:59:15.789Z,13.80
2023-02-08T04:00:15.804Z,12.40
2023-02-08T04:01:15.758Z,13.60
2023-02-08T04:02:15.791Z,12.70
2023-02-08T04:03:15.714Z,11.80
2023-02-08T04:04:15.698Z,13.00
2023-02-08T04:05:15.676Z,13.80
2023-02-08T04:06:15.670Z,11.90
2023-02-08T04:07:15.683Z,12.60
2023-02-08T04:08:15.642Z,14.20
2023-02-08T04:09:15.612Z,13.30
2023-02-08T04:10:15.603Z,11.50
2023-02-08T04:11:15.576Z,10.70
2023-02-08T04:12:15.596Z,10.30
2023-02-08T04:13:15.547Z,9.30
2023-02-08T04:14:15.528Z,10.80
2023-02-08T04:15:15.512Z,11.00
2023-02-08T04:16:16.502Z,9.30
2023-02-08T04:17:15.502Z,9.70
2023-02-08T04:18:15.454Z,9.40
2023-02-08T04:19:15.445Z,8.30
2023-02-08T04:20:15.422Z,9.20
2023-02-08T04:21:15.392Z,9.20
2023-02-08T04:22:15.420Z,8.70
2023-02-08T04:23:15.373Z,9.90
2023-02-08T04:24:15.345Z,9.50
2023-02-08T04:25:15.349Z,8.50
2023-02-08T04:26:15.314Z,7.30
2023-02-08T04:27:15.324Z,8.30
2023-02-08T04:28:15.346Z,8.80
2023-02-08T04:29:15.269Z,8.60
2023-02-08T04:30:15.247Z,7.70
2023-02-08T04:31:15.267Z,8.60
2023-02-08T04:32:15.245Z,8.90
2023-02-08T04:33:15.197Z,9.10
2023-02-08T04:34:15.195Z,8.50
2023-02-08T04:35:15.167Z,8.60
2023-02-08T04:36:15.155Z,9.10
2023-02-08T04:37:16.162Z,9.10
2023-02-08T04:38:15.124Z,10.10
2023-02-08T04:39:15.102Z,13.10
2023-02-08T04:40:15.093Z,14.20
2023-02-08T04:41:15.066Z,13.60
2023-02-08T04:42:15.077Z,12.60
2023-02-08T04:43:15.040Z,12.50
2023-02-08T04:44:15.013Z,13.00
2023-02-08T04:45:14.993Z,13.60
2023-02-08T04:46:15.012Z,11.10
2023-02-08T04:47:14.989Z,10.40
2023-02-08T04:48:14.953Z,10.00
2023-02-08T04:49:14.935Z,9.70
2023-02-08T04:50:14.910Z,10.20
2023-02-08T04:51:14.887Z,9.40
2023-02-08T04:52:14.912Z,11.30
2023-02-08T04:53:14.868Z,10.20
2023-02-08T04:54:14.840Z,10.50
2023-02-08T04:55:14.832Z,12.10
2023-02-08T04:56:14.819Z,11.10
2023-02-08T04:57:14.833Z,11.20
2023-02-08T04:58:14.782Z,11.60
2023-02-08T04:59:14.762Z,10.30
2023-02-08T05:00:14.816Z,11.90
2023-02-08T05:01:14.759Z,10.30
2023-02-08T05:02:14.743Z,10.50
2023-02-08T05:03:14.693Z,9.60
2023-02-08T05:04:14.658Z,11.30
2023-02-08T05:05:14.660Z,10.70
2023-02-08T05:06:14.647Z,10.00
2023-02-08T05:07:14.664Z,10.60
2023-02-08T05:08:14.611Z,10.20
2023-02-08T05:09:14.577Z,11.20
2023-02-08T05:10:14.552Z,11.40
2023-02-08T05:11:14.542Z,11.70
2023-02-08T05:12:14.568Z,10.90
2023-02-08T05:13:14.501Z,14.50
2023-02-08T05:14:14.503Z,17.10
2023-02-08T05:15:14.498Z,13.90
2023-02-08T05:16:14.501Z,20.10
2023-02-08T05:17:14.474Z,18.10
2023-02-08T05:18:14.423Z,13.80
2023-02-08T05:19:14.415Z,12.40
2023-02-08T05:20:14.397Z,10.60
2023-02-08T05:21:14.372Z,11.00
2023-02-08T05:22:14.389Z,10.10
2023-02-08T05:23:14.352Z,9.80
2023-02-08T05:24:14.333Z,11.20
2023-02-08T05:25:14.295Z,11.60
2023-02-08T05:26:14.286Z,9.90
2023-02-08T05:27:14.329Z,9.70
2023-02-08T05:28:14.289Z,11.50
2023-02-08T05:29:14.244Z,11.50
2023-02-08T05:30:14.209Z,10.80
2023-02-08T05:31:14.421Z,10.70
2023-02-08T05:32:14.212Z,10.70
2023-02-08T05:33:14.170Z,10.70
2023-02-08T05:34:14.151Z,10.50
2023-02-08T05:35:14.128Z,10.00
2023-02-08T05:36:14.116Z,10.70
2023-02-08T05:37:14.167Z,10.60
2023-02-08T05:38:14.088Z,9.60
2023-02-08T05:39:14.062Z,10.10
2023-02-08T05:40:14.040Z,10.00
2023-02-08T05:41:14.039Z,8.90
2023-02-08T05:45:47.399Z,10.50
2023-02-08T05:46:26.434Z,9.90
2023-02-08T05:47:26.396Z,10.20
2023-02-08T05:48:26.346Z,9.60
2023-02-08T05:49:26.325Z,9.80
2023-02-08T05:50:26.309Z,10.60
2023-02-08T05:51:26.296Z,10.40
2023-02-08T05:52:26.297Z,10.60
2023-02-08T05:53:26.252Z,8.70
2023-02-08T05:54:26.229Z,9.00
2023-02-08T05:55:26.208Z,9.80
2023-02-08T05:56:26.196Z,9.00
2023-02-08T05:57:26.238Z,9.30
2023-02-08T05:58:26.159Z,9.70
2023-02-08T05:59:26.127Z,8.20
2023-02-08T06:00:26.114Z,7.80
2023-02-08T06:01:26.109Z,9.00
2023-02-08T06:02:26.108Z,10.10
2023-02-08T06:03:26.054Z,7.70
2023-02-08T06:04:26.052Z,9.90
2023-02-08T06:05:26.007Z,8.30
2023-02-08T06:06:26.004Z,9.20
2023-02-08T06:07:26.014Z,7.90
2023-02-08T06:08:25.954Z,7.80
2023-02-08T06:09:25.942Z,6.90
2023-02-08T06:10:25.928Z,8.70
2023-02-08T06:11:25.888Z,9.30
2023-02-08T06:12:25.911Z,10.30
2023-02-08T06:13:25.855Z,8.40
2023-02-08T06:14:25.912Z,9.90
2023-02-08T06:15:25.860Z,12.30
2023-02-08T06:16:25.882Z,12.50
2023-02-08T06:17:25.825Z,224.60
2023-02-08T06:18:25.792Z,405.20
2023-02-08T06:19:25.745Z,64.30
2023-02-08T06:20:25.763Z,153.20
2023-02-08T06:21:25.709Z,48.00
2023-02-08T06:22:25.720Z,44.30
2023-02-08T06:23:25.666Z,156.40
2023-02-08T06:24:25.680Z,21.20
2023-02-08T06:25:26.797Z,15.80
2023-02-08T06:26:26.767Z,12.30
2023-02-08T06:27:26.782Z,13.50
2023-02-08T06:28:26.751Z,10.90
2023-02-08T06:29:26.700Z,10.30
2023-02-08T06:30:26.696Z,11.00
2023-02-08T06:31:26.740Z,12.90
2023-02-08T06:32:26.722Z,11.20
2023-02-08T06:33:26.665Z,13.10
2023-02-08T06:34:26.635Z,212.80
2023-02-08T06:35:26.589Z,14.00
2023-02-08T06:36:26.584Z,10.90
2023-02-08T06:37:26.589Z,11.20
2023-02-08T06:38:27.550Z,9.40
2023-02-08T06:39:26.526Z,9.60
2023-02-08T06:40:26.526Z,10.20
2023-02-08T06:41:26.485Z,9.60
2023-02-08T06:42:26.513Z,10.50
2023-02-08T06:43:26.437Z,9.30
2023-02-08T06:44:26.435Z,9.70
2023-02-08T06:45:26.499Z,9.70
2023-02-08T06:46:26.459Z,9.80
2023-02-08T06:47:26.415Z,8.20
2023-02-08T06:48:26.353Z,8.70
2023-02-08T06:49:26.459Z,11.50
2023-02-08T06:50:26.341Z,9.20
2023-02-08T06:51:26.320Z,8.90
2023-02-08T06:52:26.343Z,10.20
2023-02-08T06:53:26.300Z,9.60
2023-02-08T06:54:26.242Z,9.70
2023-02-08T06:55:26.225Z,10.30
2023-02-08T06:56:26.204Z,9.70
2023-02-08T06:57:26.211Z,11.40
2023-02-08T06:58:26.168Z,10.90
2023-02-08T06:59:26.170Z,9.70
2023-02-08T07:00:26.176Z,10.70
2023-02-08T07:01:26.165Z,11.00
2023-02-08T07:02:26.267Z,8.80
2023-02-08T07:03:26.154Z,10.60
2023-02-08T07:04:26.072Z,9.30
2023-02-08T07:05:26.060Z,10.50
2023-02-08T07:06:26.033Z,10.50
2023-02-08T07:07:26.053Z,11.50
2023-02-08T07:08:25.987Z,10.70
2023-02-08T07:09:25.984Z,10.00
2023-02-08T07:10:25.965Z,12.70
2023-02-08T07:11:25.951Z,8.30
2023-02-08T07:12:25.974Z,10.40
2023-02-08T07:13:25.920Z,10.40
2023-02-08T07:14:25.904Z,10.00
2023-02-08T07:15:25.877Z,9.20
2023-02-08T07:16:25.860Z,7.80
2023-02-08T07:17:25.856Z,8.90
2023-02-08T07:18:25.810Z,7.70
2023-02-08T07:19:25.814Z,8.80
2023-02-08T07:20:25.761Z,6.20
2023-02-08T07:21:25.764Z,6.70
2023-02-08T07:22:25.817Z,6.20
2023-02-08T07:23:25.724Z,8.50
2023-02-08T07:24:25.709Z,7.10
2023-02-08T07:25:25.708Z,13.60
2023-02-08T07:26:25.698Z,9.90
2023-02-08T07:27:26.147Z,11.50
2023-02-08T07:28:26.673Z,9.50
2023-02-08T07:29:25.655Z,7.40
2023-02-08T07:30:25.590Z,9.00
2023-02-08T07:31:25.618Z,7.10
2023-02-08T07:32:25.627Z,7.60
2023-02-08T07:33:25.536Z,8.00
2023-02-08T07:34:25.529Z,6.60
2023-02-08T07:35:25.606Z,21.60
2023-02-08T07:36:25.497Z,19.20
2023-02-08T07:37:25.508Z,14.80
2023-02-08T07:38:25.467Z,12.10
2023-02-08T07:39:25.438Z,10.90
2023-02-08T07:40:25.414Z,9.70
2023-02-08T07:41:25.398Z,8.90
2023-02-08T07:42:25.422Z,10.10
2023-02-08T07:43:27.233Z,9.40
2023-02-08T07:44:26.340Z,10.50
2023-02-08T07:45:25.337Z,10.40
2023-02-08T07:46:25.346Z,9.50
2023-02-08T07:47:25.344Z,10.00
2023-02-08T07:48:25.302Z,9.00
2023-02-08T07:49:25.260Z,11.30
2023-02-08T07:50:25.309Z,13.80
2023-02-08T07:51:25.256Z,13.10
2023-02-08T07:52:25.261Z,13.30
2023-02-08T07:53:25.198Z,10.50
2023-02-08T07:54:25.188Z,11.10
2023-02-08T07:55:25.158Z,10.10
2023-02-08T07:56:25.234Z,12.70
2023-02-08T07:57:25.212Z,13.50
2023-02-08T07:58:25.179Z,10.30
2023-02-08T07:59:25.149Z,10.90
2023-02-08T08:00:25.167Z,12.00
2023-02-08T08:01:25.120Z,9.80
2023-02-08T08:02:25.078Z,11.40
2023-02-08T08:03:25.086Z,16.40
2023-02-08T08:04:25.024Z,13.90
2023-02-08T08:05:25.014Z,27.00
2023-02-08T08:06:25.018Z,11.70
2023-02-08T08:07:58.638Z,10.20
2023-02-08T08:08:24.958Z,14.70
2023-02-08T08:09:24.962Z,14.50
2023-02-08T08:10:24.915Z,11.60
2023-02-08T08:11:24.890Z,15.00
2023-02-08T08:12:24.877Z,10.10
2023-02-08T08:13:25.017Z,11.40
2023-02-08T08:14:24.845Z,11.60
2023-02-08T08:15:24.857Z,12.00
2023-02-08T08:16:24.814Z,10.70
2023-02-08T08:17:24.809Z,10.00
2023-02-08T08:18:24.831Z,11.90
2023-02-08T08:19:24.813Z,10.20
2023-02-08T08:20:24.849Z,15.20
2023-02-08T08:21:24.724Z,13.90
2023-02-08T08:22:24.758Z,11.50
2023-02-08T08:23:24.801Z,10.70
2023-02-08T08:24:24.762Z,9.80
2023-02-08T08:25:24.683Z,10.90
2023-02-08T08:26:24.656Z,12.70
2023-02-08T08:27:24.626Z,9.80
2023-02-08T08:28:24.731Z,11.70
2023-02-08T08:29:24.588Z,10.80
2023-02-08T08:30:24.693Z,10.80
2023-02-08T08:31:24.709Z,10.20
2023-02-08T08:32:24.559Z,12.00
2023-02-08T08:33:24.762Z,12.10
2023-02-08T08:34:24.761Z,13.50
2023-02-08T08:35:24.505Z,10.60
2023-02-08T08:36:24.558Z,11.00
2023-02-08T08:37:24.587Z,10.80
2023-02-08T08:38:24.464Z,10.80
2023-02-08T08:39:24.415Z,11.90
2023-02-08T08:40:25.272Z,10.30
2023-02-08T08:41:25.398Z,11.90
2023-02-08T08:42:24.378Z,11.80
2023-02-08T08:43:24.763Z,10.50
2023-02-08T08:44:24.340Z,10.80
2023-02-08T08:45:24.454Z,11.10
2023-02-08T08:46:24.367Z,10.60
2023-02-08T08:47:24.587Z,12.40
2023-02-08T08:48:24.313Z,12.40
2023-02-08T08:49:24.560Z,11.80
2023-02-08T08:50:24.269Z,10.30
2023-02-08T08:51:25.113Z,10.00
2023-02-08T08:52:24.229Z,10.90
2023-02-08T08:53:24.228Z,10.90
2023-02-08T08:54:24.224Z,9.50
2023-02-08T08:55:24.159Z,9.30
2023-02-08T08:56:24.132Z,11.10
2023-02-08T08:57:24.115Z,10.40
2023-02-08T08:58:24.259Z,9.00
2023-02-08T08:59:24.087Z,10.50
2023-02-08T09:00:24.167Z,10.80
2023-02-08T09:01:24.131Z,10.30
2023-02-08T09:02:25.029Z,10.00
2023-02-08T09:03:24.218Z,8.10
2023-02-08T09:04:23.997Z,9.10
2023-02-08T09:05:24.170Z,9.20
2023-02-08T09:06:23.966Z,9.70
2023-02-08T09:07:23.940Z,10.10
2023-02-08T09:08:23.956Z,10.00
2023-02-08T09:09:23.909Z,9.80
2023-02-08T09:10:23.904Z,9.70
2023-02-08T09:11:23.901Z,12.00
2023-02-08T09:12:23.913Z,8.60
2023-02-08T09:13:23.875Z,8.40
2023-02-08T09:14:23.828Z,8.60
2023-02-08T09:15:23.819Z,7.80
2023-02-08T09:16:23.863Z,8.40
2023-02-08T09:17:23.787Z,7.80
2023-02-08T09:18:23.846Z,9.30
2023-02-08T09:19:23.748Z,7.90
2023-02-08T09:20:23.756Z,8.40
2023-02-08T09:21:23.724Z,8.30
2023-02-08T09:22:23.804Z,9.40
2023-02-08T09:23:23.726Z,8.30
2023-02-08T09:24:23.682Z,9.50
2023-02-08T09:25:23.837Z,7.80
2023-02-08T09:26:23.639Z,7.30
2023-02-08T09:27:23.661Z,8.40
2023-02-08T09:28:23.689Z,17.60
2023-02-08T09:29:24.581Z,8.60
2023-02-08T09:30:23.672Z,16.20
2023-02-08T09:31:23.795Z,8.10
2023-02-08T09:32:23.582Z,10.20
2023-02-08T09:33:23.552Z,8.30
2023-02-08T09:34:23.506Z,8.90
2023-02-08T09:35:23.536Z,9.30
2023-02-08T09:36:23.486Z,8.30
2023-02-08T09:37:24.493Z,45.40
2023-02-08T09:38:23.472Z,36.80
2023-02-08T09:39:23.474Z,175.80
2023-02-08T09:40:23.410Z,115.10
2023-02-08T09:41:23.413Z,71.70
2023-02-08T09:42:23.410Z,8.50
2023-02-08T09:43:23.405Z,94.30
2023-02-08T09:44:23.356Z,9.40
2023-02-08T09:45:24.344Z,15.30
2023-02-08T09:46:23.374Z,16.00
2023-02-08T09:47:23.316Z,247.30
2023-02-08T09:48:23.370Z,243.20
2023-02-08T09:49:23.268Z,337.70
2023-02-08T09:50:23.253Z,190.70
2023-02-08T09:51:23.361Z,162.20
2023-02-08T09:52:23.221Z,15.80
2023-02-08T09:53:23.240Z,15.30
2023-02-08T09:54:23.187Z,10.10
2023-02-08T09:55:23.193Z,10.20
2023-02-08T09:56:23.287Z,9.80
2023-02-08T09:57:23.152Z,9.20
2023-02-08T09:58:23.164Z,10.10
2023-02-08T09:59:23.115Z,8.70
2023-02-08T10:00:23.106Z,10.00
2023-02-08T10:01:23.151Z,9.80
2023-02-08T10:02:23.069Z,9.80
2023-02-08T10:03:23.281Z,9.90
2023-02-08T10:04:23.042Z,11.40
2023-02-08T10:05:23.018Z,10.20
2023-02-08T10:06:23.019Z,9.30
2023-02-08T10:07:22.978Z,11.70
2023-02-08T10:08:34.247Z,10.00
2023-02-08T10:09:24.970Z,9.60
2023-02-08T10:10:23.109Z,9.80
2023-02-08T10:11:22.926Z,9.40
2023-02-08T10:12:22.934Z,10.10
2023-02-08T10:13:33.021Z,10.60
2023-02-08T10:14:24.870Z,10.80
2023-02-08T10:15:22.851Z,9.70
2023-02-08T10:16:22.885Z,9.10
2023-02-08T10:17:22.839Z,9.00
2023-02-08T10:18:22.901Z,10.20
2023-02-08T10:19:22.782Z,9.60
2023-02-08T10:20:22.824Z,9.30
2023-02-08T10:21:22.748Z,8.60
2023-02-08T10:22:22.744Z,9.70
2023-02-08T10:23:22.755Z,8.60
2023-02-08T10:24:22.734Z,8.90
2023-02-08T10:25:22.697Z,8.60
2023-02-08T10:26:22.679Z,9.40
2023-02-08T10:27:22.681Z,9.70
2023-02-08T10:28:22.795Z,9.20
2023-02-08T10:29:22.680Z,10.10
2023-02-08T10:30:22.681Z,8.80
2023-02-08T10:31:22.724Z,9.50
2023-02-08T10:32:22.585Z,8.90
2023-02-08T10:33:23.843Z,11.00
2023-02-08T10:34:22.552Z,10.30
2023-02-08T10:35:22.538Z,11.50
2023-02-08T10:36:22.513Z,9.90
2023-02-08T10:37:22.543Z,10.40
2023-02-08T10:38:22.680Z,10.10
2023-02-08T10:39:22.471Z,9.60
2023-02-08T10:40:22.456Z,10.40
2023-02-08T10:41:22.469Z,9.80
2023-02-08T10:42:22.605Z,10.60
2023-02-08T10:43:22.434Z,9.40
2023-02-08T10:44:22.650Z,9.80
2023-02-08T10:45:24.547Z,11.00
2023-02-08T10:46:23.344Z,9.90
2023-02-08T10:47:22.333Z,9.20
2023-02-08T10:48:22.400Z,11.60
2023-02-08T10:49:22.346Z,12.00
2023-02-08T10:50:22.401Z,11.40
2023-02-08T10:51:22.308Z,10.80
2023-02-08T10:52:22.245Z,11.90
2023-02-08T10:53:22.260Z,10.60
2023-02-08T10:54:22.202Z,12.00
2023-02-08T10:55:23.248Z,11.70
2023-02-08T10:56:22.230Z,10.00
2023-02-08T10:57:22.175Z,12.80
2023-02-08T10:58:22.203Z,13.60
2023-02-08T10:59:22.136Z,11.90
2023-02-08T11:00:22.119Z,11.40
2023-02-08T11:01:22.129Z,12.10
2023-02-08T11:02:22.378Z,11.70
2023-02-08T11:03:22.094Z,12.00
2023-02-08T11:04:22.091Z,11.30
2023-02-08T11:05:22.032Z,12.40
2023-02-08T11:06:22.085Z,10.20
2023-02-08T11:07:22.041Z,10.20
2023-02-08T11:08:22.014Z,9.30
2023-02-08T11:09:21.970Z,10.40
2023-02-08T11:10:21.981Z,9.00
2023-02-08T11:11:21.993Z,9.70
2023-02-08T11:12:21.988Z,8.80
2023-02-08T11:13:21.932Z,9.40
2023-02-08T11:14:21.908Z,9.00
2023-02-08T11:15:21.890Z,9.00
2023-02-08T11:16:21.881Z,10.50
2023-02-08T11:17:21.837Z,10.10
2023-02-08T11:18:21.854Z,9.30
2023-02-08T11:19:21.858Z,9.90
2023-02-08T11:20:21.789Z,9.10
2023-02-08T11:21:21.791Z,10.00
2023-02-08T11:22:21.748Z,10.30
2023-02-08T11:23:21.782Z,10.50
2023-02-08T11:24:21.830Z,9.90
2023-02-08T11:25:21.836Z,9.80
2023-02-08T11:26:21.714Z,10.20
2023-02-08T11:27:21.804Z,10.10
2023-02-08T11:28:21.665Z,9.80
2023-02-08T11:29:21.668Z,11.10
2023-02-08T11:30:21.667Z,10.50
2023-02-08T11:31:21.854Z,11.30
2023-02-08T11:32:21.609Z,9.90
2023-02-08T11:33:21.619Z,9.80
2023-02-08T11:34:21.612Z,10.20
2023-02-08T11:35:21.558Z,8.80
2023-02-08T11:36:21.561Z,9.90
2023-02-08T11:37:21.521Z,8.70
2023-02-08T11:38:21.530Z,9.40
2023-02-08T11:39:21.676Z,10.10
2023-02-08T11:40:21.623Z,10.40
2023-02-08T11:41:21.493Z,8.70
2023-02-08T11:42:21.443Z,9.60
2023-02-08T11:43:22.482Z,8.00
2023-02-08T11:44:21.680Z,8.90
2023-02-08T11:45:21.395Z,9.60
2023-02-08T11:46:21.580Z,7.30
2023-02-08T11:47:21.699Z,8.80
2023-02-08T11:48:22.403Z,7.90
2023-02-08T11:49:21.358Z,8.50
2023-02-08T11:50:21.317Z,7.80
2023-02-08T11:51:21.276Z,8.80
2023-02-08T11:52:21.309Z,7.60
2023-02-08T11:53:21.292Z,5.90
2023-02-08T11:54:21.733Z,6.20
2023-02-08T11:55:21.305Z,8.00
2023-02-08T11:56:21.207Z,6.00
2023-02-08T11:57:21.186Z,8.40
2023-02-08T11:58:21.409Z,8.60
2023-02-08T11:59:21.226Z,8.50
2023-02-08T12:00:21.136Z,7.60
2023-02-08T12:01:21.168Z,8.40
2023-02-08T12:02:21.107Z,7.00
2023-02-08T12:03:21.135Z,7.50
2023-02-08T12:04:21.105Z,7.00
2023-02-08T12:05:21.064Z,7.40
2023-02-08T12:06:21.031Z,7.90
2023-02-08T12:07:21.120Z,7.10
2023-02-08T12:08:21.030Z,7.60
2023-02-08T12:09:21.034Z,8.10
2023-02-08T12:10:20.980Z,8.70
2023-02-08T12:11:21.104Z,7.30
2023-02-08T12:12:20.938Z,7.20
2023-02-08T12:13:20.960Z,7.10
2023-02-08T12:14:20.913Z,7.30
2023-02-08T12:15:21.117Z,7.30
2023-02-08T12:16:20.902Z,8.40
2023-02-08T12:17:20.868Z,7.80
2023-02-08T12:18:20.841Z,7.60
2023-02-08T12:19:20.933Z,8.10
2023-02-08T12:20:20.817Z,8.10
2023-02-08T12:21:20.791Z,7.40
2023-02-08T12:22:20.772Z,7.40
2023-02-08T12:23:20.778Z,7.20
2023-02-08T12:24:20.804Z,7.40
2023-02-08T12:25:20.771Z,7.20
2023-02-08T12:26:20.733Z,7.00
2023-02-08T12:27:20.693Z,7.00
2023-02-08T12:28:20.705Z,6.80
2023-02-08T12:29:20.688Z,8.10
2023-02-08T12:30:20.657Z,7.70
2023-02-08T12:31:20.724Z,6.90
2023-02-08T12:32:20.632Z,7.30
2023-02-08T12:33:20.583Z,6.90
2023-02-08T12:34:20.599Z,8.40
2023-02-08T12:35:33.210Z,8.70
2023-02-08T12:36:22.543Z,9.20
2023-02-08T12:37:20.531Z,9.00
2023-02-08T12:38:20.485Z,11.50
2023-02-08T12:39:22.327Z,9.30
2023-02-08T12:40:21.454Z,9.10
2023-02-08T12:41:20.522Z,8.80
2023-02-08T12:42:20.496Z,7.60
2023-02-08T12:43:20.397Z,8.70
2023-02-08T12:44:20.408Z,7.00
2023-02-08T12:45:20.640Z,9.00
2023-02-08T12:46:20.616Z,7.00
2023-02-08T12:47:20.335Z,6.80
2023-02-08T12:48:20.477Z,7.20
2023-02-08T12:49:20.351Z,7.10
2023-02-08T12:50:20.277Z,6.50
2023-02-08T12:51:20.260Z,7.80
2023-02-08T12:52:20.241Z,6.80
2023-02-08T12:53:20.226Z,5.60
2023-02-08T12:54:20.244Z,5.90
2023-02-08T12:55:20.181Z,5.30
2023-02-08T12:56:20.175Z,6.80
2023-02-08T12:57:20.145Z,4.70
2023-02-08T12:58:20.130Z,5.30
2023-02-08T12:59:20.148Z,6.60
2023-02-08T13:00:20.105Z,4.80
2023-02-08T13:01:20.111Z,6.70
2023-02-08T13:02:20.100Z,6.30
2023-02-08T13:03:20.159Z,6.50
2023-02-08T13:04:20.073Z,5.30
2023-02-08T13:05:20.021Z,6.60
2023-02-08T13:06:19.990Z,6.30
2023-02-08T13:07:20.011Z,4.80
2023-02-08T13:08:19.961Z,4.90